Terminal Aerodrome Forecast
Issued by NWS

Home | Current Version | Previous Version | Text Only | Print | Product List | Glossary On
Versions: 1 2 3 4 5 6 7 8 9 10
161
FTUS43 KILX 251122
TAFBMI
TAF
KBMI 251122Z 2512/2612 16007KT P6SM BKN250
     FM251500 17015G24KT P6SM BKN200
     FM260200 17012KT P6SM BKN150=

USA.gov is the U.S. government's official web portal to all federal, state and local government web resources and services.